Vaduz, Liechtenstein

11:37 PM CEST on September 01, 2015 (GMT +0200)
IOBERLAN3 | | Change Station
CLOSE
Current Station
Personal Weather Station
Location: Vaduz, Oberland
Elevation: 1690 ft
Nearby Weather Stations

Elev 1690 ft 47.15 °N, 9.52 °E | Updated 2 minutes ago

Light Rain
Light Rain
60.8 °F
Feels Like 60.8 °F
N
2.0
Wind Variable Wind from SSW
Gusts 3.0 mph

Today
High -- | Low -- °F
--% Chance of Precip.
Yesterday
High -- | Low -- °F
Precip. -- in
6:40 AM 8:02 PM
Waning Gibbous, 86% visible
Pressure 30.06 in
Visibility 5.6 miles
Clouds Scattered Clouds 4500 ft
Mostly Cloudy 5000 ft
Dew Point 56 °F
Humidity 85%
Rainfall 0.09 in
Snow Depth Not available.
UV 0.0 out of 12
Pollen Not available.
Air Quality Not available.
Flu Activity Not available.
METAR LSZR 012120Z AUTO 24004KT 200V290 9000 -RA SCT045 BKN050 16/15 Q1018
Pressure 30.06 in
Visibility 5.6 miles
Clouds Scattered Clouds 4500 ft
Mostly Cloudy 5000 ft
Dew Point 56 °F
Humidity 85%
Rainfall 0.09 in
Snow Depth Not available.
UV 0.0 out of 12
Pollen Not available.
Air Quality Not available.
Flu Activity Not available.
METAR LSZR 012120Z AUTO 24004KT 200V290 9000 -RA SCT045 BKN050 16/15 Q1018

10-Day Weather Forecast

×

Almanac

Astronomy

Sep. 01, 2015 Rise Set
Actual Time
Civil Twilight
Nautical Twilight
Astronomical Twilight
Moon
Length of Visible Light
Length of Day
Tomorrow will be .
, % of the Moon is Illuminated

Today's Extremes

Country Highs Country Lows

Community

WunderPhotos

Upload Photos

1,851,628 photos uploaded!

WunderBlogs® & News

Nearby

Air Quality

  Air Quality AQ Index Pollutant
Not available.

Snow Depth

Station Depth Elevation

Earthquake Activity

City Distance Mag. Time & Date
Minimum magnitude displayed is 2.5.

Coastal Water Temperatures

Place Temperature

Stations

Nearby Weather Stations

Station Location Temp. Windchill Dew Point Humidity Wind Precip. Elev Updated Type